Latest Weather Observations for Pallamana

IDS60901

Issued at 5:11 am CDT Friday 24 November 2017 (issued every 10 minutes, with the page automatically refreshed every 10 minutes)

About weather observations | Map of Adelaide area stations | Latest observations for Adelaide area | Other Formats
Station Details ID: 024584 Name: PALLAMANA AERODROME Lat: -35.06 Lon: 139.23 Height: 45.0 m
Data from the previous 72 hours. | See also: Recent months at Pallamana
Date/Time
CDT
Temp
°C
App
Temp
°C
Dew
Point
°C
Rel
Hum
%
Delta-T
°C
Wind Press
QNH
hPa
Press
MSL
hPa
Rain since
9am
mm
Dir  Spd
km/h
Gust
km/h
Spd
kts
Gust
kts
24/05:00am 17.3 17.4 15.6 90 1.0 W 9 15 5 8 1011.3 1011.1 9.0
24/04:30am 17.9 17.8 16.0 89 1.1 SSW 11 15 6 8 1011.3 1011.1 9.0
24/04:00am 18.0 18.4 16.3 90 1.0 SSW 9 13 5 7 1011.1 1011.0 9.0
24/03:30am 18.0 18.5 16.5 91 0.9 WSW 9 13 5 7 1011.4 1011.2 9.0
24/03:00am 17.8 17.8 16.3 91 0.9 SW 11 15 6 8 1011.0 1010.9 9.0
24/02:30am 18.2 18.7 16.5 90 1.0 SW 9 11 5 6 1011.4 1011.2 9.0
24/02:00am 18.4 18.5 16.6 89 1.1 WSW 11 15 6 8 1011.8 1011.6 9.0
24/01:30am 18.5 18.2 16.5 88 1.2 W 13 15 7 8 1012.0 1011.8 9.0
24/01:00am 18.4 17.8 16.6 89 1.1 WSW 15 19 8 10 1011.9 1011.7 9.0
24/12:30am 18.7 18.2 16.9 89 1.1 WSW 15 20 8 11 1012.3 1012.1 9.0
24/12:00am 18.5 17.7 17.0 91 0.9 W 17 20 9 11 1012.1 1011.9 9.0
 
Date/Time
CDT
Temp
°C
App
Temp
°C
Dew
Point
°C
Rel
Hum
%
Delta-T
°C
Wind Press
QNH
hPa
Press
MSL
hPa
Rain since
9am
mm
Dir  Spd
km/h
Gust
km/h
Spd
kts
Gust
kts
23/11:30pm 18.7 17.8 16.9 89 1.1 WSW 17 22 9 12 1011.9 1011.7 9.0
23/11:00pm 18.9 18.0 16.9 88 1.2 SW 17 24 9 13 1011.8 1011.6 9.0
23/10:30pm 19.0 17.6 17.0 88 1.2 SW 20 26 11 14 1011.7 1011.5 9.0
23/10:00pm 19.2 18.1 16.4 84 1.7 W 17 20 9 11 1011.8 1011.6 9.0
23/09:30pm 19.8 19.7 16.1 79 2.2 WNW 11 15 6 8 1011.5 1011.3 9.0
23/09:00pm 20.2 22.3 16.2 78 2.4 CALM 0 0 0 0 1010.6 1010.5 9.0
23/08:30pm 20.2 21.0 16.4 79 2.3 SE 7 11 4 6 1010.0 1009.9 9.0
23/08:00pm 20.9 19.7 15.0 69 3.5 W 15 20 8 11 1009.5 1009.4 9.0
23/07:30pm 20.5 19.4 15.3 72 3.1 W 15 22 8 12 1009.2 1009.1 9.0
23/07:00pm 20.5 17.0 15.6 73 2.9 NW 28 37 15 20 1010.0 1009.9 8.8
23/06:36pm 22.6 20.9 16.2 67 3.9 NNW 20 41 11 22 1010.0 1009.9 8.8
23/06:30pm 24.9 25.4 15.5 56 5.7 W 7 20 4 11 1009.7 1009.6 8.8
23/06:00pm 25.2 25.3 15.5 55 5.9 SW 9 13 5 7 1009.1 1009.0 8.8
23/05:30pm 25.6 26.5 16.7 58 5.5 S 7 13 4 7 1009.2 1009.1 8.8
23/05:00pm 25.1 25.9 16.3 58 5.4 W 7 11 4 6 1009.7 1009.6 8.6
23/04:30pm 24.7 25.6 16.6 60 5.0 SW 7 11 4 6 1009.6 1009.5 8.6
23/04:00pm 24.2 24.0 16.7 63 4.6 WNW 13 19 7 10 1009.5 1009.4 8.6
23/03:30pm 23.9 24.7 17.3 66 4.1 NW 9 15 5 8 1009.5 1009.4 8.6
23/03:00pm 25.4 24.2 16.1 56 5.7 NW 17 24 9 13 1010.1 1010.0 8.6
23/02:30pm 25.6 24.8 16.0 55 5.9 W 15 22 8 12 1010.4 1010.3 8.6
23/02:00pm 23.4 23.2 16.7 66 4.1 W 13 19 7 10 1010.7 1010.6 8.6
23/01:30pm 20.4 21.6 17.3 82 1.9 NNW 7 9 4 5 1010.9 1010.8 8.6
23/01:10pm 18.9 19.6 16.1 84 1.7 SW 7 11 4 6 1010.8 1010.7 8.6
23/01:00pm 19.2 18.7 14.9 76 2.5 SE 11 17 6 9 1011.3 1011.1 8.6
23/12:49pm 19.2 12.6 13.6 70 3.2 NW 41 82 22 44 1011.6 1011.4 6.8
23/12:42pm 18.1 12.2 15.6 85 1.5 NW 41 82 22 44 1011.9 1011.7 2.0
23/12:40pm 20.1 15.3 14.6 70 3.2 NW 33 82 18 44 1011.4 1011.2 0.0
23/12:39pm 21.4 17.2 14.6 65 4.0 WNW 30 56 16 30 1011.6 1011.4 0.0
23/12:30pm 26.2 24.5 14.7 49 6.9 W 17 30 9 16 1010.6 1010.5 0.0
23/12:00pm 27.3 26.4 12.6 40 8.6 W 9 17 5 9 1010.6 1010.5 0.0
23/11:30am 26.9 26.5 12.9 42 8.2 W 7 15 4 8 1010.7 1010.6 0.0
23/11:00am 25.8 24.9 12.5 43 7.7 WSW 9 13 5 7 1010.8 1010.7 0.0
23/10:30am 25.4 25.2 13.7 48 6.9 NNE 7 11 4 6 1011.0 1010.9 0.0
23/10:00am 23.5 23.2 13.4 53 5.9 ENE 7 9 4 5 1010.5 1010.4 0.0
23/09:30am 22.4 22.8 13.8 58 5.0 SSE 4 9 2 5 1010.5 1010.4 0.0
23/09:00am 21.8 21.7 13.9 61 4.6 ESE 7 11 4 6 1010.5 1010.4 0.0
23/08:30am 21.4 21.7 14.4 64 4.1 S 6 9 3 5 1010.4 1010.3 0.0
23/08:00am 20.2 20.3 14.4 69 3.4 WSW 7 11 4 6 1010.0 1009.9 0.0
23/07:30am 19.6 20.1 15.0 75 2.7 SSW 6 9 3 5 1009.9 1009.8 0.0
23/07:00am 19.4 19.2 14.8 75 2.7 SE 9 13 5 7 1009.4 1009.3 0.0
23/06:30am 19.6 17.1 15.2 76 2.6 SE 22 30 12 16 1008.3 1008.2 0.0
23/06:00am 19.3 19.3 15.2 77 2.4 S 9 13 5 7 1009.2 1009.1 0.0
23/05:30am 19.4 19.4 15.2 76 2.5 SSE 9 13 5 7 1009.2 1009.1 0.0
23/05:00am 19.5 18.6 14.9 75 2.7 S 13 17 7 9 1008.9 1008.8 0.0
23/04:30am 19.5 19.1 14.1 71 3.1 SSW 9 13 5 7 1009.3 1009.2 0.0
23/04:00am 19.5 18.7 14.0 70 3.2 S 11 15 6 8 1009.5 1009.4 0.0
23/03:30am 19.9 17.3 13.8 68 3.5 SW 20 26 11 14 1009.6 1009.5 0.0
23/03:00am 20.4 17.0 13.6 65 3.9 SW 24 30 13 16 1009.4 1009.3 0.0
23/02:30am 20.8 17.7 13.3 62 4.3 WSW 22 30 12 16 1009.7 1009.6 0.0
23/02:00am 21.6 19.5 13.7 60 4.6 S 17 20 9 11 1008.8 1008.7 0.0
23/01:30am 21.9 19.9 12.8 56 5.2 S 15 20 8 11 1008.6 1008.5 0.0
23/01:00am 22.5 20.1 12.5 53 5.7 SSW 17 20 9 11 1009.8 1009.7 0.0
23/12:30am 22.6 20.6 12.6 53 5.7 SW 15 20 8 11 1010.2 1010.1 0.0
23/12:00am 23.1 20.1 12.0 49 6.3 SE 19 22 10 12 1009.0 1008.9 0.0
 
Date/Time
CDT
Temp
°C
App
Temp
°C
Dew
Point
°C
Rel
Hum
%
Delta-T
°C
Wind Press
QNH
hPa
Press
MSL
hPa
Rain since
9am
mm
Dir  Spd
km/h
Gust
km/h
Spd
kts
Gust
kts
22/11:30pm 22.1 21.1 12.4 54 5.5 SSW 9 19 5 10 1009.3 1009.2 0.0
22/11:00pm 22.8 21.0 12.0 50 6.1 SSW 13 17 7 9 1010.0 1009.9 0.0
22/10:30pm 23.0 21.6 12.1 50 6.2 WNW 11 15 6 8 1011.6 1011.4 0.0
22/10:00pm 23.1 21.7 12.2 50 6.2 WNW 11 15 6 8 1011.3 1011.1 0.0
22/09:30pm 23.6 20.9 11.8 47 6.7 W 17 20 9 11 1010.8 1010.7 0.0
22/09:00pm 23.6 21.8 12.2 48 6.5 W 13 20 7 11 1010.7 1010.6 0.0
22/08:30pm 23.8 21.7 12.3 48 6.6 SW 15 19 8 10 1010.2 1010.1 0.0
22/08:00pm 25.0 21.3 11.4 42 7.7 SSW 22 28 12 15 1009.7 1009.6 0.0
22/07:30pm 26.6 23.1 10.9 37 8.9 SSW 20 26 11 14 1009.2 1009.1 0.0
22/07:00pm 28.2 23.2 9.6 31 10.4 SW 26 33 14 18 1008.8 1008.7 0.0
22/06:30pm 29.0 24.0 9.6 29 10.9 SSW 26 32 14 17 1008.4 1008.3 0.0
22/06:00pm 30.3 25.2 9.3 27 11.8 SW 26 33 14 18 1008.1 1008.0 0.0
22/05:30pm 32.1 25.8 7.6 21 13.5 W 30 39 16 21 1007.9 1007.8 0.0
22/05:00pm 33.0 28.2 7.5 20 14.1 W 22 35 12 19 1007.7 1007.6 0.0
22/04:30pm 32.7 27.2 7.6 21 13.9 W 26 37 14 20 1007.7 1007.6 0.0
22/04:00pm 33.4 27.2 7.7 20 14.3 WNW 30 39 16 21 1007.8 1007.7 0.0
22/03:30pm 33.7 26.1 5.7 17 15.1 WNW 35 50 19 27 1007.8 1007.7 0.0
22/03:12pm 33.6 26.9 5.5 17 15.1 W 30 48 16 26 1007.8 1007.7 0.0
22/03:00pm 33.5 26.7 5.3 17 15.1 W 30 44 16 24 1007.8 1007.7 0.0
22/02:30pm 36.6 31.1 0.6 10 18.2 NE 19 30 10 16 1008.1 1008.0 0.0
22/02:00pm 35.9 30.3 1.3 11 17.6 NNE 20 37 11 20 1008.6 1008.5 0.0
22/01:30pm 35.0 29.2 2.4 13 16.8 NNE 22 32 12 17 1009.1 1009.0 0.0
22/01:00pm 35.2 30.4 2.4 12 16.9 N 17 32 9 17 1009.7 1009.6 0.0
22/12:30pm 35.7 29.5 2.0 12 17.3 N 24 39 13 21 1010.2 1010.1 0.0
22/12:00pm 35.4 28.1 2.5 12 17.0 NNE 30 43 16 23 1010.7 1010.6 0.0
22/11:30am 34.9 27.1 1.6 12 16.9 NNE 32 39 17 21 1011.1 1011.0 0.0
22/11:00am 34.2 25.8 1.5 12 16.5 NNE 35 44 19 24 1011.6 1011.4 0.0
22/10:30am 33.7 26.5 3.1 14 15.8 NNE 30 43 16 23 1011.8 1011.6 0.0
22/10:00am 32.0 24.9 3.7 16 14.6 N 30 41 16 22 1012.0 1011.8 0.0
22/09:30am 30.9 24.6 3.9 18 13.9 N 26 35 14 19 1012.3 1012.1 0.0
22/09:00am 28.8 23.8 4.4 21 12.5 NNE 20 26 11 14 1012.4 1012.2 0.0
22/08:30am 26.8 22.0 4.8 24 11.2 NNE 19 22 10 12 1012.6 1012.5 0.0
22/08:00am 25.1 20.3 4.9 27 10.2 NNE 19 24 10 13 1012.6 1012.5 0.0
22/07:30am 23.0 18.8 5.5 32 8.8 N 17 22 9 12 1012.4 1012.2 0.0
22/07:00am 20.4 17.4 7.9 44 6.5 N 13 17 7 9 1012.1 1011.9 0.0
22/06:30am 17.6 14.6 7.5 51 5.1 NNW 13 15 7 8 1011.9 1011.7 0.0
22/06:00am 16.4 13.7 7.4 55 4.5 NNW 11 15 6 8 1011.6 1011.4 0.0
22/05:30am 15.4 13.2 7.8 60 3.8 NNW 9 11 5 6 1011.5 1011.3 0.0
22/05:00am 15.2 13.5 8.3 63 3.5 NNW 7 9 4 5 1011.4 1011.2 0.0
22/04:30am 13.5 13.4 9.6 77 2.0 CALM 0 4 0 2 1011.1 1011.0 0.0
22/04:00am 14.1 13.9 9.2 72 2.5 CALM 0 0 0 0 1011.0 1010.9 0.0
22/03:30am 15.7 15.1 9.1 65 3.4 ESE 2 9 1 5 1010.8 1010.7 0.0
22/03:00am 15.4 14.2 9.4 67 3.1 NNE 6 17 3 9 1011.1 1011.0 0.0
22/02:30am 16.0 16.1 10.3 69 3.0 CALM 0 0 0 0 1011.1 1011.0 0.0
22/02:00am 16.2 14.9 10.1 67 3.2 NNW 7 9 4 5 1011.3 1011.1 0.0
22/01:30am 18.1 15.9 7.7 50 5.3 NNW 9 11 5 6 1011.5 1011.3 0.0
22/01:00am 21.8 19.2 5.9 35 8.0 NNW 9 13 5 7 1011.8 1011.6 0.0
22/12:30am 22.1 18.7 5.8 34 8.2 NNW 13 15 7 8 1012.0 1011.8 0.0
22/12:00am 22.5 19.8 5.6 33 8.5 NNW 9 11 5 6 1012.1 1011.9 0.0
 
Date/Time
CDT
Temp
°C
App
Temp
°C
Dew
Point
°C
Rel
Hum
%
Delta-T
°C
Wind Press
QNH
hPa
Press
MSL
hPa
Rain since
9am
mm
Dir  Spd
km/h
Gust
km/h
Spd
kts
Gust
kts
21/11:30pm 23.0 18.6 5.0 31 9.0 NNW 17 20 9 11 1012.3 1012.1 0.0
21/11:00pm 24.6 21.6 4.3 27 10.1 N 9 13 5 7 1012.2 1012.0 0.0
21/10:30pm 23.8 21.4 5.4 30 9.3 N 7 9 4 5 1012.4 1012.2 0.0
21/10:00pm 25.0 21.3 4.4 26 10.3 ENE 13 17 7 9 1012.5 1012.3 0.0
21/09:30pm 25.8 21.7 4.6 25 10.7 ENE 15 17 8 9 1012.4 1012.2 0.0
21/09:00pm 25.7 22.1 5.0 26 10.5 E 13 15 7 8 1012.1 1011.9 0.0
21/08:30pm 28.0 23.7 3.5 20 12.3 E 15 17 8 9 1012.0 1011.8 0.0
21/08:00pm 29.8 25.1 3.0 18 13.5 ENE 17 19 9 10 1011.9 1011.7 0.0
21/07:30pm 31.9 26.6 2.8 16 14.8 ENE 20 28 11 15 1011.7 1011.5 0.0
21/07:00pm 33.3 27.0 1.8 13 15.9 ENE 24 35 13 19 1011.4 1011.2 0.0
21/06:30pm 33.2 27.0 1.9 14 15.8 NE 24 37 13 20 1011.3 1011.1 0.0
21/06:00pm 34.3 29.6 3.0 14 16.2 NNE 17 26 9 14 1011.1 1011.0 0.0
21/05:30pm 35.0 28.8 1.9 12 16.9 NNE 24 33 13 18 1011.3 1011.1 0.0
21/05:00pm 35.7 30.2 1.6 11 17.4 NE 20 37 11 20 1011.5 1011.3 0.0
21/04:30pm 35.5 29.3 2.3 12 17.1 NE 24 35 13 19 1011.7 1011.5 0.0
21/04:00pm 35.6 28.3 2.6 12 17.1 NNE 30 43 16 23 1011.9 1011.7 0.0
21/03:38pm 35.8 28.6 1.0 11 17.6 NE 28 46 15 25 1012.1 1011.9 0.0
21/03:30pm 35.7 28.9 0.7 11 17.6 NE 26 41 14 22 1012.2 1012.0 0.0
21/03:00pm 35.1 28.3 2.9 13 16.7 NNE 28 43 15 23 1012.6 1012.5 0.0
21/02:49pm 36.2 29.2 2.0 11 17.6 NE 28 46 15 25 1012.8 1012.7 0.0
21/02:30pm 36.7 31.0 2.9 12 17.7 NE 22 43 12 23 1013.0 1012.9 0.0
21/02:15pm 35.8 28.9 2.6 12 17.2 NNE 28 46 15 25 1013.3 1013.2 0.0
21/02:00pm 35.0 29.5 4.2 14 16.3 NNE 22 41 12 22 1013.4 1013.3 0.0
21/01:30pm 34.6 29.0 3.3 14 16.3 NNE 22 35 12 19 1013.8 1013.7 0.0
21/01:08pm 35.8 29.1 3.4 13 17.0 NNE 28 46 15 25 1014.2 1014.1 0.0
21/01:00pm 34.2 28.8 4.6 15 15.7 NNE 22 33 12 18 1014.2 1014.1 0.0
21/12:30pm 34.3 27.7 4.1 15 15.9 NNE 28 48 15 26 1014.7 1014.6 0.0
21/12:00pm 34.8 28.6 6.2 17 15.6 N 28 46 15 25 1015.0 1014.9 0.0
21/11:33am 33.7 27.6 6.6 18 14.8 N 28 46 15 25 1015.2 1015.1 0.0
21/11:30am 33.8 27.7 6.8 18 14.8 N 28 35 15 19 1015.2 1015.1 0.0
21/11:00am 32.7 25.7 6.8 20 14.1 N 33 44 18 24 1015.5 1015.4 0.0
21/10:30am 31.7 24.9 7.1 21 13.4 N 32 44 17 24 1015.5 1015.4 0.0
21/10:00am 30.9 24.0 7.1 22 12.9 N 33 46 18 25 1015.8 1015.7 0.0
21/09:30am 29.7 23.4 7.6 25 12.0 N 30 41 16 22 1015.8 1015.7 0.0
21/09:00am 28.6 23.3 8.3 28 11.1 N 26 35 14 19 1016.0 1015.9 0.0
21/08:30am 26.3 22.4 9.4 34 9.3 NNE 20 26 11 14 1016.1 1016.0 0.0
21/08:00am 25.1 21.2 8.8 35 8.8 NNE 19 24 10 13 1016.0 1015.9 0.0
21/07:30am 22.4 20.7 9.9 45 6.8 N 9 15 5 8 1016.0 1015.9 0.0
21/07:00am 20.1 21.2 13.5 66 3.8 CALM 0 0 0 0 1016.0 1015.9 0.0
21/06:30am 18.0 17.6 11.0 63 3.8 NW 4 7 2 4 1015.7 1015.6 0.0
21/06:00am 16.0 16.4 11.4 74 2.5 CALM 0 0 0 0 1015.5 1015.4 0.0
21/05:30am 16.5 16.9 11.1 70 2.9 CALM 0 0 0 0 1015.4 1015.3 0.0

Latest Capital City Observations: Canberra | Sydney | Melbourne | Brisbane | Adelaide | Perth | Hobart | Darwin

Other Formats:

Comma delimited format used in spreadsheet applications
http://www.bom.gov.au/fwo/IDS60901/IDS60901.95818.axf

JavaScript Object Notation format (JSON) in row-major order
http://www.bom.gov.au/fwo/IDS60901/IDS60901.95818.json